Time;durP1;ratioP1;P1;durP2;ratioP2;P2;SDS_P1;SDS_P2;PMS_P1;PMS_P2;Temp;Humidity;BMP_temperature;BMP_pressure;BME280_temperature;BME280_humidity;BME280_pressure;Samples;Min_cycle;Max_cycle;Signal;HPM_P1;HPM_P2
2023/05/13 00:00:54;;;;;;;5.82;3.42;;;;;;;13.40;74.87;99919.13;4492331;31;33897;-63
2023/05/13 00:03:22;;;;;;;3.20;2.85;;;;;;;13.64;73.58;99923.41;4491934;31;33150;-63
2023/05/13 00:05:50;;;;;;;4.50;2.53;;;;;;;13.75;73.43;99918.00;4492785;31;33078;-64
2023/05/13 00:08:18;;;;;;;5.25;3.12;;;;;;;13.44;74.41;99914.34;4483989;31;32280;-63
2023/05/13 00:10:46;;;;;;;4.70;2.65;;;;;;;13.77;73.06;99920.53;4487987;31;32449;-63
2023/05/13 00:13:14;;;;;;;2.67;1.77;;;;;;;13.94;72.23;99923.50;4492138;31;32412;-62
2023/05/13 00:15:41;;;;;;;7.12;4.03;;;;;;;13.61;73.37;99921.00;4492758;31;34628;-63
2023/05/13 00:18:09;;;;;;;6.37;3.67;;;;;;;13.37;74.43;99916.69;4490961;31;32776;-63
2023/05/13 00:20:36;;;;;;;5.15;3.17;;;;;;;13.66;73.15;99916.09;4495322;31;34421;-63
2023/05/13 00:23:04;;;;;;;3.90;2.72;;;;;;;13.36;73.61;99912.31;4495236;31;34237;-63
2023/05/13 00:25:32;;;;;;;3.28;2.37;;;;;;;13.61;72.91;99915.59;4497873;31;33650;-64
2023/05/13 00:27:59;;;;;;;2.78;1.77;;;;;;;13.71;72.50;99925.47;4494963;31;32866;-64
2023/05/13 00:30:27;;;;;;;4.93;3.53;;;;;;;13.88;71.95;99931.25;4484690;31;34068;-63
2023/05/13 00:32:55;;;;;;;3.75;2.30;;;;;;;13.77;71.62;99928.62;4495718;31;33510;-64
2023/05/13 00:35:22;;;;;;;5.57;3.45;;;;;;;13.64;72.13;99915.34;4492711;31;34601;-64
2023/05/13 00:37:50;;;;;;;3.70;3.08;;;;;;;13.23;73.79;99925.03;4494510;31;35008;-63
2023/05/13 00:40:22;;;;;;;4.15;3.20;;;;;;;13.63;71.64;99925.25;4495689;31;33588;-63
2023/05/13 00:42:51;;;;;;;4.93;3.17;;;;;;;13.64;71.55;99923.41;4482704;31;32943;-62
2023/05/13 00:45:19;;;;;;;6.78;3.85;;;;;;;13.55;71.99;99921.50;4494697;31;33823;-64
2023/05/13 00:47:48;;;;;;;4.55;2.80;;;;;;;13.74;71.05;99930.59;4495926;31;33968;-63
2023/05/13 00:50:15;;;;;;;5.47;3.12;;;;;;;13.58;72.13;99930.19;4479956;31;34583;-65
2023/05/13 00:52:43;;;;;;;5.43;3.70;;;;;;;13.72;71.44;99931.72;4493265;31;31759;-63
2023/05/13 00:55:11;;;;;;;2.70;1.75;;;;;;;13.90;70.83;99937.34;4494361;31;34955;-63
2023/05/13 00:57:41;;;;;;;3.75;2.47;;;;;;;13.68;71.59;99938.34;4494953;31;35199;-63
2023/05/13 01:00:09;;;;;;;2.65;1.90;;;;;;;13.96;70.41;99929.62;4496321;31;33902;-64
2023/05/13 01:02:41;;;;;;;4.72;3.85;;;;;;;14.15;69.80;99930.69;4492356;31;33431;-63
2023/05/13 01:05:28;;;;;;;4.60;3.33;;;;;;;14.02;69.77;99938.13;4488595;31;32712;-63
2023/05/13 01:08:02;;;;;;;3.75;2.70;;;;;;;13.80;70.02;99931.87;4489968;31;34912;-63
2023/05/13 01:10:32;;;;;;;2.30;1.98;;;;;;;13.67;70.34;99940.16;4495777;31;34937;-63
2023/05/13 01:13:03;;;;;;;7.37;3.35;;;;;;;13.35;72.03;99933.94;4494269;31;34184;-62
2023/05/13 01:15:31;;;;;;;6.15;4.10;;;;;;;13.54;71.28;99936.78;4484727;31;33884;-63
2023/05/13 01:18:12;;;;;;;4.70;3.15;;;;;;;13.57;71.11;99933.00;4491164;31;33861;-64
2023/05/13 01:20:41;;;;;;;3.65;2.15;;;;;;;13.65;71.21;99938.59;4486124;31;33856;-63
2023/05/13 01:23:12;;;;;;;4.05;3.05;;;;;;;13.77;70.77;99939.37;4490432;31;33463;-66
2023/05/13 01:25:40;;;;;;;4.78;2.50;;;;;;;13.84;70.16;99941.44;4491952;31;33617;-66
2023/05/13 01:28:08;;;;;;;15.45;3.05;;;;;;;13.89;69.86;99943.72;4492980;31;34045;-65
2023/05/13 01:30:36;;;;;;;10.52;2.83;;;;;;;13.87;69.79;99943.84;4489681;31;32288;-66
2023/05/13 01:33:04;;;;;;;5.70;3.87;;;;;;;14.01;69.53;99948.06;4490629;31;34210;-66
2023/05/13 01:35:32;;;;;;;6.72;4.12;;;;;;;14.13;68.81;99947.00;4493612;31;33816;-66
2023/05/13 01:38:01;;;;;;;3.75;2.75;;;;;;;13.91;69.51;99945.28;4477046;31;33885;-66
2023/05/13 01:40:30;;;;;;;7.62;3.50;;;;;;;13.88;69.61;99944.72;4492413;31;33558;-66
2023/05/13 01:43:00;;;;;;;10.30;3.58;;;;;;;13.85;69.77;99947.66;4492692;31;32134;-66
2023/05/13 01:45:28;;;;;;;4.45;3.05;;;;;;;14.20;68.80;99944.62;4491115;31;33835;-65
2023/05/13 01:47:57;;;;;;;4.10;3.05;;;;;;;14.29;68.41;99948.37;4489969;31;33750;-65
2023/05/13 01:50:25;;;;;;;4.90;3.25;;;;;;;14.35;68.37;99947.81;4495036;31;33639;-65
2023/05/13 01:52:52;;;;;;;5.07;2.90;;;;;;;14.14;68.68;99948.69;4485839;31;34349;-66
2023/05/13 01:55:21;;;;;;;3.47;2.65;;;;;;;13.92;69.43;99947.00;4495302;31;33516;-65
2023/05/13 01:57:48;;;;;;;4.55;3.00;;;;;;;13.65;70.36;99941.28;4482896;31;35289;-66
2023/05/13 02:00:17;;;;;;;5.40;3.20;;;;;;;14.05;69.29;99948.63;4496187;31;34630;-64
2023/05/13 02:02:48;;;;;;;2.92;2.10;;;;;;;13.94;69.22;99949.56;4494719;31;33443;-65
2023/05/13 02:05:16;;;;;;;6.05;2.47;;;;;;;13.78;69.95;99941.09;4488335;31;32724;-65
2023/05/13 02:07:44;;;;;;;3.47;2.45;;;;;;;14.17;68.73;99955.66;4492416;31;35266;-65
2023/05/13 02:10:11;;;;;;;5.37;2.37;;;;;;;14.27;68.29;99942.25;4487303;31;33881;-65
2023/05/13 02:12:39;;;;;;;4.57;2.65;;;;;;;13.80;69.62;99950.72;4489554;31;32364;-65
2023/05/13 02:15:07;;;;;;;4.95;2.33;;;;;;;14.06;68.80;99947.63;4495572;31;33838;-65
2023/05/13 02:17:35;;;;;;;3.17;2.42;;;;;;;13.79;69.70;99945.50;4492999;31;35254;-66
2023/05/13 02:20:03;;;;;;;2.87;2.33;;;;;;;13.76;69.90;99946.59;4485067;31;33660;-65
2023/05/13 02:22:30;;;;;;;3.45;2.58;;;;;;;13.56;70.47;99945.59;4491688;31;32137;-65
2023/05/13 02:24:58;;;;;;;3.22;2.62;;;;;;;13.57;70.29;99949.13;4487874;31;33564;-65
2023/05/13 02:27:26;;;;;;;2.62;1.65;;;;;;;13.15;72.52;99949.84;4497375;31;33688;-65
2023/05/13 02:29:53;;;;;;;2.15;1.95;;;;;;;13.27;71.91;99945.34;4493254;31;33828;-64
2023/05/13 02:32:21;;;;;;;6.72;3.30;;;;;;;13.54;70.93;99950.25;4492718;31;34282;-65
2023/05/13 02:34:49;;;;;;;4.35;2.87;;;;;;;13.53;71.28;99953.91;4494213;31;33666;-66
2023/05/13 02:37:16;;;;;;;6.82;2.83;;;;;;;13.79;70.39;99956.25;4493346;31;32541;-67
2023/05/13 02:39:44;;;;;;;5.28;3.08;;;;;;;13.92;69.62;99952.38;4497232;31;34918;-66
2023/05/13 02:42:14;;;;;;;5.57;4.05;;;;;;;13.92;69.92;99952.38;4494264;31;33109;-65
2023/05/13 02:44:41;;;;;;;6.15;3.90;;;;;;;13.86;69.67;99954.75;4494759;31;32504;-66
2023/05/13 02:47:11;;;;;;;6.22;3.35;;;;;;;13.73;70.18;99966.53;4495565;31;33824;-67
2023/05/13 02:49:38;;;;;;;5.68;2.65;;;;;;;13.48;71.40;99966.88;4494308;31;32330;-65
2023/05/13 02:52:06;;;;;;;5.10;3.72;;;;;;;13.59;70.93;99957.94;4491102;31;33267;-66
2023/05/13 02:54:34;;;;;;;9.23;4.15;;;;;;;13.74;70.27;99960.19;4498532;31;34582;-67
2023/05/13 02:57:02;;;;;;;7.53;3.92;;;;;;;13.81;69.87;99965.91;4496023;31;34943;-65
2023/05/13 02:59:30;;;;;;;7.57;4.47;;;;;;;13.53;70.92;99961.97;4495511;31;33656;-65
2023/05/13 03:01:57;;;;;;;3.97;2.87;;;;;;;13.25;71.49;99963.41;4489654;31;33609;-65
2023/05/13 03:04:24;;;;;;;4.65;2.58;;;;;;;13.26;71.71;99959.78;4494199;31;33821;-66
2023/05/13 03:06:52;;;;;;;4.68;3.50;;;;;;;13.50;70.83;99965.78;4486125;31;34076;-66
2023/05/13 03:09:20;;;;;;;7.47;3.85;;;;;;;13.66;69.89;99961.81;4484367;31;32634;-66
2023/05/13 03:11:47;;;;;;;4.45;3.33;;;;;;;13.53;70.35;99961.97;4494417;31;31827;-66
2023/05/13 03:14:15;;;;;;;7.32;4.03;;;;;;;13.57;70.29;99962.56;4491342;31;33907;-65
2023/05/13 03:16:43;;;;;;;5.30;3.37;;;;;;;13.58;70.29;99956.22;4492260;31;33601;-67
2023/05/13 03:19:11;;;;;;;6.05;4.07;;;;;;;13.32;71.14;99964.59;4496332;31;33540;-65
2023/05/13 03:21:39;;;;;;;7.68;5.00;;;;;;;13.48;70.12;99966.88;4493928;31;33141;-65
2023/05/13 03:24:07;;;;;;;3.83;2.35;;;;;;;13.19;71.40;99964.75;4495714;31;34933;-67
2023/05/13 03:26:35;;;;;;;5.10;3.12;;;;;;;13.36;70.43;99976.84;4497275;31;32871;-66
2023/05/13 03:29:02;;;;;;;4.95;2.72;;;;;;;13.52;69.88;99974.59;4497354;31;33861;-67
2023/05/13 03:31:31;;;;;;;3.83;2.78;;;;;;;13.54;69.77;99969.06;4492447;31;34538;-66
2023/05/13 03:33:59;;;;;;;6.93;4.47;;;;;;;13.49;70.05;99966.78;4492741;31;33580;-67
2023/05/13 03:36:27;;;;;;;2.28;1.75;;;;;;;13.56;69.49;99974.31;4488384;31;33946;-66
2023/05/13 03:38:55;;;;;;;2.40;1.98;;;;;;;13.84;68.54;99981.78;4491504;31;33839;-67
2023/05/13 03:41:22;;;;;;;5.55;3.37;;;;;;;13.73;68.77;99989.88;4492718;31;33459;-67
2023/05/13 03:43:50;;;;;;;3.40;2.08;;;;;;;13.78;68.48;99987.69;4494576;31;34042;-66
2023/05/13 03:46:18;;;;;;;4.95;2.62;;;;;;;13.55;69.58;99984.22;4492638;31;33813;-67
2023/05/13 03:48:46;;;;;;;3.75;2.75;;;;;;;13.69;68.64;99988.44;4491409;31;34104;-65
2023/05/13 03:51:14;;;;;;;2.65;1.85;;;;;;;13.75;68.20;99983.41;4491923;31;34451;-66
2023/05/13 03:53:42;;;;;;;6.10;2.92;;;;;;;13.52;69.09;99984.50;4493082;31;34026;-67
2023/05/13 03:56:09;;;;;;;7.85;3.75;;;;;;;13.64;68.61;99987.97;4487748;31;33551;-66
2023/05/13 03:58:37;;;;;;;5.47;3.65;;;;;;;13.30;69.65;99982.72;4496712;31;34690;-66
2023/05/13 04:01:06;;;;;;;3.87;2.72;;;;;;;13.13;70.95;99991.25;4494248;31;34556;-65
2023/05/13 04:03:33;;;;;;;1.33;1.17;;;;;;;13.51;69.32;99997.09;4488090;31;34885;-64
2023/05/13 04:06:01;;;;;;;3.35;2.28;;;;;;;13.45;69.68;100002.97;4491775;31;33897;-65
2023/05/13 04:08:29;;;;;;;5.87;3.50;;;;;;;13.39;69.82;99995.41;4484081;31;33797;-66
2023/05/13 04:10:57;;;;;;;5.22;3.00;;;;;;;13.54;69.43;100001.31;4489579;31;33395;-65
2023/05/13 04:13:25;;;;;;;4.53;2.47;;;;;;;13.77;68.44;100001.25;4495387;31;34174;-66
2023/05/13 04:15:54;;;;;;;6.50;2.97;;;;;;;13.84;67.87;99997.94;4490457;31;33980;-65
2023/05/13 04:18:21;;;;;;;6.95;3.45;;;;;;;13.70;68.62;100004.44;4495474;31;34799;-66
2023/05/13 04:20:49;;;;;;;10.73;3.42;;;;;;;13.40;69.84;100005.16;4493348;31;34366;-65
2023/05/13 04:23:16;;;;;;;6.22;3.47;;;;;;;13.37;69.75;100002.72;4491890;31;33671;-66
2023/05/13 04:25:52;;;;;;;4.28;2.42;;;;;;;13.46;69.36;99999.28;4495398;31;35475;-66
2023/05/13 04:28:19;;;;;;;4.72;3.15;;;;;;;13.71;68.71;100011.56;4492952;31;32300;-65
2023/05/13 04:30:47;;;;;;;5.57;3.03;;;;;;;13.91;68.10;100009.87;4489668;31;33981;-65
2023/05/13 04:33:15;;;;;;;3.83;2.40;;;;;;;13.94;67.86;100006.94;4491500;31;34825;-68
2023/05/13 04:35:43;;;;;;;4.25;3.12;;;;;;;13.94;67.86;100014.16;4488993;31;35745;-69
2023/05/13 04:38:11;;;;;;;4.10;3.22;;;;;;;13.77;68.55;100012.00;4484993;31;33867;-69
2023/05/13 04:40:38;;;;;;;6.55;3.92;;;;;;;13.76;68.28;100011.16;4484242;31;34753;-66
2023/05/13 04:43:06;;;;;;;5.55;2.90;;;;;;;13.60;68.88;100016.09;4487986;31;34872;-65
2023/05/13 04:45:35;;;;;;;4.05;2.35;;;;;;;13.66;68.32;100016.44;4490823;31;35011;-66
2023/05/13 04:48:05;;;;;;;5.22;1.95;;;;;;;13.62;69.13;100016.84;4491659;31;32280;-65
2023/05/13 04:50:32;;;;;;;4.68;1.85;;;;;;;13.36;69.92;100014.47;4493390;31;34563;-66
2023/05/13 04:53:01;;;;;;;3.50;2.08;;;;;;;13.55;69.55;100011.13;4491764;31;34671;-65
2023/05/13 04:55:28;;;;;;;8.80;2.10;;;;;;;13.43;69.64;100022.88;4482882;31;33986;-67
2023/05/13 04:57:56;;;;;;;6.00;3.40;;;;;;;13.37;70.10;100021.56;4495737;31;34980;-66
2023/05/13 05:00:24;;;;;;;4.22;3.03;;;;;;;13.68;69.61;100029.78;4493272;31;33424;-65
2023/05/13 05:02:51;;;;;;;3.92;2.25;;;;;;;13.73;69.04;100038.31;4490782;31;32614;-66
2023/05/13 05:05:19;;;;;;;6.70;3.00;;;;;;;13.79;69.02;100031.56;4492055;31;34105;-66
2023/05/13 05:07:47;;;;;;;2.22;1.87;;;;;;;13.85;68.24;100039.97;4489632;31;34899;-66
2023/05/13 05:10:14;;;;;;;2.83;2.15;;;;;;;13.43;70.04;100037.19;4482768;31;32445;-66
2023/05/13 05:12:42;;;;;;;2.70;2.12;;;;;;;13.62;69.32;100041.91;4487777;31;33959;-65
2023/05/13 05:15:14;;;;;;;4.70;3.37;;;;;;;13.50;69.94;100037.53;4492583;31;35604;-66
2023/05/13 05:17:43;;;;;;;9.55;2.97;;;;;;;13.55;69.44;100029.94;4487721;31;33674;-65
2023/05/13 05:20:12;;;;;;;4.37;2.62;;;;;;;13.38;69.73;100034.00;4495361;31;32746;-65
2023/05/13 05:22:40;;;;;;;4.28;2.10;;;;;;;12.93;71.32;100043.94;4491540;31;34068;-66
2023/05/13 05:25:09;;;;;;;3.62;2.47;;;;;;;13.03;71.22;100040.41;4489045;31;34883;-66
2023/05/13 05:27:37;;;;;;;3.65;1.98;;;;;;;13.22;70.80;100049.66;4491811;31;34564;-66
2023/05/13 05:30:05;;;;;;;3.40;2.28;;;;;;;13.24;71.15;100048.56;4497190;31;32537;-65
2023/05/13 05:32:34;;;;;;;6.90;3.62;;;;;;;13.01;71.54;100046.87;4487477;31;33902;-63
2023/05/13 05:35:02;;;;;;;7.57;3.15;;;;;;;13.00;71.32;100054.06;4484228;32;33943;-63
2023/05/13 05:37:30;;;;;;;7.85;2.60;;;;;;;13.03;71.54;100055.62;4490043;31;32598;-65
2023/05/13 05:39:58;;;;;;;4.30;2.78;;;;;;;12.92;72.23;100056.50;4495844;31;33351;-65
2023/05/13 05:42:26;;;;;;;5.43;2.85;;;;;;;12.73;73.41;100053.56;4496307;31;33707;-65
2023/05/13 05:44:54;;;;;;;3.55;1.80;;;;;;;12.69;72.76;100052.12;4495364;31;35011;-65
2023/05/13 05:47:21;;;;;;;5.45;2.40;;;;;;;12.37;74.50;100050.09;4494664;31;34825;-64
2023/05/13 05:49:49;;;;;;;4.32;3.62;;;;;;;12.33;74.46;100048.62;4496263;31;34490;-66
2023/05/13 05:52:18;;;;;;;2.78;2.03;;;;;;;12.31;75.25;100051.44;4494571;31;33852;-65
2023/05/13 05:54:45;;;;;;;2.87;1.70;;;;;;;12.10;76.55;100039.66;4497218;31;34031;-64
2023/05/13 05:57:13;;;;;;;3.72;1.90;;;;;;;12.17;76.20;100045.44;4498958;31;33952;-65
2023/05/13 05:59:40;;;;;;;4.82;3.20;;;;;;;12.56;74.75;100049.53;4495421;31;34144;-64
2023/05/13 06:02:08;;;;;;;4.12;2.40;;;;;;;12.66;74.00;100046.97;4494665;31;33584;-65
2023/05/13 06:04:36;;;;;;;8.02;3.17;;;;;;;12.18;76.24;100056.03;4486188;31;32998;-65
2023/05/13 06:07:04;;;;;;;5.47;2.78;;;;;;;12.08;76.62;100055.03;4488394;31;33933;-64
2023/05/13 06:09:32;;;;;;;3.62;2.08;;;;;;;12.59;74.52;100058.19;4500219;31;33949;-65
2023/05/13 06:11:59;;;;;;;4.78;2.75;;;;;;;12.90;73.31;100058.44;4496966;31;34648;-65
2023/05/13 06:14:28;;;;;;;8.43;4.70;;;;;;;12.97;73.38;100058.81;4492186;31;32911;-66
2023/05/13 06:16:55;;;;;;;6.40;2.95;;;;;;;12.89;74.47;100055.91;4487307;31;34233;-65
2023/05/13 06:19:23;;;;;;;3.40;1.85;;;;;;;12.77;73.76;100068.47;4493442;31;33308;-65
2023/05/13 06:21:50;;;;;;;8.50;3.58;;;;;;;12.89;73.79;100061.28;4488941;31;33763;-65
2023/05/13 06:24:18;;;;;;;6.15;3.22;;;;;;;13.06;73.71;100063.47;4496196;31;35035;-66
2023/05/13 06:26:46;;;;;;;6.37;2.67;;;;;;;12.97;73.24;100072.25;4487226;31;33725;-65
2023/05/13 06:29:14;;;;;;;5.18;2.80;;;;;;;12.69;74.44;100063.72;4492772;31;33337;-65
2023/05/13 06:31:41;;;;;;;2.75;1.52;;;;;;;12.63;74.68;100077.59;4487552;31;33760;-65
2023/05/13 06:34:15;;;;;;;7.18;3.75;;;;;;;12.73;74.45;100067.00;4497020;31;34056;-65
2023/05/13 06:36:42;;;;;;;4.97;2.80;;;;;;;12.88;73.67;100071.16;4493651;31;33708;-65
2023/05/13 06:39:11;;;;;;;5.05;3.12;;;;;;;12.81;74.61;100070.81;4493610;31;34166;-65
2023/05/13 06:41:39;;;;;;;3.03;2.15;;;;;;;12.96;73.75;100071.41;4491771;31;32482;-65
2023/05/13 06:44:07;;;;;;;2.85;1.73;;;;;;;13.10;72.94;100066.75;4500737;31;34958;-66
2023/05/13 06:46:38;;;;;;;4.65;3.00;;;;;;;13.15;72.26;100069.94;4495903;31;33833;-65
2023/05/13 06:49:05;;;;;;;6.05;3.45;;;;;;;12.92;74.28;100071.78;4485373;31;33441;-65
2023/05/13 06:51:33;;;;;;;5.55;2.80;;;;;;;12.99;74.54;100073.00;4487794;31;33810;-65
2023/05/13 06:54:01;;;;;;;3.28;2.42;;;;;;;12.88;73.65;100068.47;4496413;31;32710;-65
2023/05/13 06:56:29;;;;;;;2.80;1.90;;;;;;;12.88;74.40;100071.16;4488563;31;33671;-65
2023/05/13 06:58:56;;;;;;;5.10;3.72;;;;;;;12.25;76.61;100064.47;4485334;31;32874;-66
2023/05/13 07:01:24;;;;;;;3.12;1.87;;;;;;;12.65;75.22;100070.31;4483400;31;33457;-66
2023/05/13 07:03:53;;;;;;;4.93;1.95;;;;;;;12.58;75.74;100067.25;4490150;31;34102;-65
2023/05/13 07:06:21;;;;;;;2.95;2.20;;;;;;;12.52;76.17;100062.34;4496111;31;32776;-66
2023/05/13 07:08:48;;;;;;;3.75;1.95;;;;;;;12.05;79.29;100056.09;4490546;31;35098;-66
2023/05/13 07:11:16;;;;;;;5.37;2.22;;;;;;;12.44;77.54;100059.38;4495187;31;33471;-66
2023/05/13 07:13:44;;;;;;;3.55;2.25;;;;;;;13.01;74.60;100055.78;4494050;31;34051;-65
2023/05/13 07:16:12;;;;;;;3.37;2.53;;;;;;;12.79;75.60;100053.94;4499108;31;33849;-66
2023/05/13 07:18:40;;;;;;;4.47;2.58;;;;;;;12.83;75.29;100055.41;4496409;31;32934;-65
2023/05/13 07:21:07;;;;;;;6.72;4.25;;;;;;;12.70;75.47;100054.66;4495319;31;33838;-65
2023/05/13 07:23:35;;;;;;;5.40;3.10;;;;;;;13.11;72.95;100063.97;4496987;31;33716;-65
2023/05/13 07:26:03;;;;;;;4.40;2.67;;;;;;;12.98;73.29;100061.41;4490068;31;33977;-66
2023/05/13 07:28:30;;;;;;;3.62;1.85;;;;;;;12.78;73.76;100068.34;4491307;31;33543;-65
2023/05/13 07:30:58;;;;;;;7.30;3.78;;;;;;;13.10;73.39;100058.69;4494928;31;32532;-65
2023/05/13 07:33:26;;;;;;;3.75;2.10;;;;;;;13.26;72.38;100068.13;4488285;31;33693;-65
2023/05/13 07:35:54;;;;;;;2.65;2.00;;;;;;;13.41;71.40;100070.53;4489882;31;33350;-65
2023/05/13 07:38:22;;;;;;;4.18;2.80;;;;;;;13.57;71.65;100079.06;4488870;31;34032;-65
2023/05/13 07:40:49;;;;;;;3.20;1.83;;;;;;;13.32;71.75;100080.19;4489396;31;32596;-65
2023/05/13 07:43:22;;;;;;;3.75;2.28;;;;;;;12.58;74.39;100085.16;4491747;31;33948;-66
2023/05/13 07:45:50;;;;;;;4.43;2.53;;;;;;;12.95;73.18;100076.91;4494348;31;35117;-65
2023/05/13 07:48:18;;;;;;;4.55;2.30;;;;;;;13.12;72.02;100078.25;4490145;31;33467;-66
2023/05/13 07:50:45;;;;;;;3.42;2.00;;;;;;;13.62;70.54;100073.31;4487106;31;33280;-65
2023/05/13 07:53:13;;;;;;;2.20;1.30;;;;;;;13.58;71.35;100083.50;4487415;31;32932;-66
2023/05/13 07:55:42;;;;;;;2.80;1.85;;;;;;;13.88;68.86;100085.47;4492242;31;32926;-65
2023/05/13 07:58:10;;;;;;;2.90;1.95;;;;;;;13.46;70.78;100082.66;4488750;31;34761;-65
2023/05/13 08:00:38;;;;;;;4.50;2.25;;;;;;;13.61;69.58;100088.63;4484596;31;33592;-65
2023/05/13 08:03:06;;;;;;;3.58;2.10;;;;;;;13.29;70.60;100088.53;4493016;31;34841;-65
2023/05/13 08:05:34;;;;;;;3.00;1.55;;;;;;;13.59;69.93;100090.56;4486697;31;33555;-66
2023/05/13 08:08:02;;;;;;;1.77;1.30;;;;;;;13.26;69.43;100095.03;4492198;31;33356;-66
2023/05/13 08:10:30;;;;;;;3.05;2.17;;;;;;;13.19;71.00;100099.16;4492687;31;33779;-67
2023/05/13 08:12:59;;;;;;;1.42;1.20;;;;;;;13.38;70.55;100103.06;4484403;31;33783;-66
2023/05/13 08:15:27;;;;;;;7.28;1.77;;;;;;;13.51;70.12;100109.16;4482139;31;34624;-65
2023/05/13 08:17:55;;;;;;;4.18;2.47;;;;;;;13.39;70.22;100104.78;4494011;31;34172;-65
2023/05/13 08:20:28;;;;;;;4.28;1.65;;;;;;;13.67;69.01;100112.28;4487853;31;35118;-66
2023/05/13 08:22:57;;;;;;;3.97;2.87;;;;;;;13.69;69.04;100104.97;4491247;31;35081;-66
2023/05/13 08:25:24;;;;;;;3.72;2.67;;;;;;;13.30;70.46;100116.28;4499066;31;32533;-66
2023/05/13 08:27:52;;;;;;;2.75;1.50;;;;;;;13.34;70.87;100112.34;4488199;31;33416;-66
2023/05/13 08:30:20;;;;;;;2.00;1.65;;;;;;;13.74;69.88;100115.37;4496898;31;33578;-66
2023/05/13 08:32:47;;;;;;;2.17;1.92;;;;;;;13.71;70.33;100121.84;4488061;31;34640;-66
2023/05/13 08:35:15;;;;;;;4.45;2.53;;;;;;;13.57;71.19;100134.69;4492841;31;34941;-65
2023/05/13 08:37:43;;;;;;;2.55;1.87;;;;;;;13.55;70.68;100126.75;4496218;31;33300;-66
2023/05/13 08:40:10;;;;;;;2.83;2.20;;;;;;;13.31;71.57;100123.34;4498596;31;33737;-65
2023/05/13 08:42:41;;;;;;;5.22;3.90;;;;;;;13.18;72.04;100135.03;4492482;31;33151;-66
2023/05/13 08:45:09;;;;;;;2.95;2.35;;;;;;;12.97;73.46;100124.19;4492106;31;33922;-66
2023/05/13 08:47:50;;;;;;;5.50;3.28;;;;;;;13.49;70.95;100121.87;4488504;31;34460;-66
2023/05/13 08:50:18;;;;;;;4.43;2.92;;;;;;;13.54;71.04;100129.56;4492444;31;34939;-66
2023/05/13 08:52:46;;;;;;;4.53;2.78;;;;;;;13.13;73.50;100131.87;4486673;31;35131;-64
2023/05/13 08:55:14;;;;;;;16.48;3.33;;;;;;;13.61;71.73;100125.37;4493582;31;35021;-65
2023/05/13 08:57:42;;;;;;;3.92;2.60;;;;;;;13.38;71.55;100127.25;4492554;31;33465;-66
2023/05/13 09:00:10;;;;;;;5.15;4.07;;;;;;;13.51;72.08;100122.59;4488479;31;33708;-65
2023/05/13 09:02:38;;;;;;;5.60;3.15;;;;;;;13.32;71.83;100117.84;4494079;31;33765;-65
2023/05/13 09:05:07;;;;;;;5.37;3.33;;;;;;;13.42;72.05;100121.53;4495444;31;34506;-65
2023/05/13 09:07:36;;;;;;;2.70;1.77;;;;;;;13.72;70.90;100122.69;4490095;31;34052;-66
2023/05/13 09:10:05;;;;;;;5.10;2.85;;;;;;;13.73;69.42;100114.47;4489066;31;35570;-65
2023/05/13 09:12:50;;;;;;;4.03;2.50;;;;;;;13.56;70.24;100119.53;4489203;31;34795;-66
2023/05/13 09:15:20;;;;;;;6.20;2.90;;;;;;;13.72;69.60;100122.69;4491076;31;33859;-66
2023/05/13 09:17:51;;;;;;;4.05;2.78;;;;;;;13.57;69.88;100123.94;4494734;31;32477;-64
2023/05/13 09:20:20;;;;;;;3.22;2.22;;;;;;;13.49;71.38;100116.50;4495807;31;34746;-67
2023/05/13 09:22:50;;;;;;;4.32;2.78;;;;;;;13.58;68.81;100115.75;4491706;31;34064;-64
2023/05/13 09:25:19;;;;;;;4.78;2.78;;;;;;;14.13;67.42;100121.13;4492163;31;33059;-67
2023/05/13 09:27:50;;;;;;;4.10;2.85;;;;;;;14.03;68.37;100115.66;4493762;31;33231;-66
2023/05/13 09:30:19;;;;;;;6.72;2.97;;;;;;;13.72;68.65;100123.53;4488739;31;35076;-66
2023/05/13 09:33:07;;;;;;;7.18;3.00;;;;;;;13.87;68.75;100125.97;4486091;31;34663;-66
2023/05/13 09:35:38;;;;;;;3.58;2.53;;;;;;;13.99;68.47;100119.53;4486620;31;34623;-66
2023/05/13 09:38:18;;;;;;;4.78;3.45;;;;;;;14.13;66.52;100127.34;4494165;31;32548;-66
2023/05/13 09:40:56;;;;;;;3.20;2.12;;;;;;;13.94;68.32;100127.16;4489216;31;34378;-66
2023/05/13 09:43:26;;;;;;;2.10;1.48;;;;;;;13.90;68.84;100125.69;4486406;31;35308;-66
2023/05/13 09:45:55;;;;;;;2.95;1.65;;;;;;;13.83;68.48;100129.88;4483740;31;34646;-66
2023/05/13 09:48:28;;;;;;;3.12;2.10;;;;;;;13.97;67.66;100121.53;4490027;31;33571;-65
2023/05/13 09:50:58;;;;;;;7.80;2.40;;;;;;;14.33;65.71;100125.66;4483752;32;33259;-65
2023/05/13 09:53:27;;;;;;;5.68;3.30;;;;;;;14.36;65.98;100121.87;4493666;31;33124;-66
2023/05/13 09:55:57;;;;;;;3.15;2.25;;;;;;;13.85;67.99;100115.31;4484645;31;34581;-65
2023/05/13 09:58:29;;;;;;;3.58;1.85;;;;;;;14.10;67.93;100111.44;4493359;31;33824;-66
2023/05/13 10:00:57;;;;;;;5.00;2.95;;;;;;;14.36;66.88;100111.94;4495704;31;33838;-66
2023/05/13 10:03:27;;;;;;;6.30;3.85;;;;;;;14.44;67.71;100116.66;4493015;31;34070;-65
2023/05/13 10:05:56;;;;;;;2.87;2.10;;;;;;;14.81;64.73;100113.56;4476707;31;34748;-66
2023/05/13 10:08:23;;;;;;;2.72;2.05;;;;;;;14.71;65.00;100118.03;4481602;31;33737;-65
2023/05/13 10:10:54;;;;;;;4.62;2.15;;;;;;;14.79;63.72;100124.44;4482969;31;35709;-66
2023/05/13 10:13:23;;;;;;;3.83;2.20;;;;;;;14.77;64.01;100118.37;4483167;31;33812;-65
2023/05/13 10:15:53;;;;;;;1.67;1.55;;;;;;;14.61;64.84;100124.22;4491299;31;35379;-67
2023/05/13 10:18:22;;;;;;;5.72;2.53;;;;;;;14.70;64.49;100114.47;4493117;31;33441;-66
2023/05/13 10:20:53;;;;;;;5.68;2.67;;;;;;;14.10;66.43;100111.44;4485468;31;33832;-66
2023/05/13 10:23:22;;;;;;;3.90;2.87;;;;;;;14.47;66.45;100121.78;4495697;31;32410;-66
2023/05/13 10:25:53;;;;;;;5.28;2.62;;;;;;;14.78;64.41;100119.22;4486105;31;33808;-67
2023/05/13 10:28:21;;;;;;;5.18;2.92;;;;;;;14.76;64.49;100113.94;4495021;31;33513;-66
2023/05/13 10:30:52;;;;;;;3.15;2.30;;;;;;;14.58;64.32;100105.63;4491575;31;34684;-66
2023/05/13 10:33:20;;;;;;;3.70;2.47;;;;;;;14.98;62.38;100115.63;4497294;31;33939;-67
2023/05/13 10:35:57;;;;;;;3.78;2.37;;;;;;;14.64;63.07;100107.78;4486240;31;33794;-66
2023/05/13 10:38:59;;;;;;;6.87;4.05;;;;;;;14.93;63.36;100117.00;4494664;31;34131;-66
2023/05/13 10:42:21;;;;;;;4.75;2.45;;;;;;;14.92;64.17;100113.47;4493179;31;33654;-66
2023/05/13 10:44:53;;;;;;;2.70;2.10;;;;;;;14.63;64.28;100119.53;4438883;32;34261;-66
2023/05/13 10:47:21;;;;;;;3.22;2.35;;;;;;;14.29;65.85;100120.69;4487003;31;34981;-66
2023/05/13 10:49:51;;;;;;;3.12;2.20;;;;;;;14.42;65.23;100121.34;4489010;31;33002;-66
2023/05/13 10:52:18;;;;;;;5.00;3.17;;;;;;;14.84;64.61;100127.63;4498207;31;33914;-66
2023/05/13 10:55:03;;;;;;;5.40;3.28;;;;;;;14.28;66.60;100127.88;4492012;31;35267;-67
2023/05/13 10:57:37;;;;;;;3.67;2.53;;;;;;;14.65;65.74;100122.09;4488764;31;33541;-66
2023/05/13 11:00:16;;;;;;;7.68;3.35;;;;;;;14.70;65.38;100119.84;4497843;31;33322;-66
2023/05/13 11:02:44;;;;;;;19.55;3.80;;;;;;;14.96;64.49;100125.72;4495559;31;33763;-66
2023/05/13 11:05:19;;;;;;;5.37;2.40;;;;;;;14.64;65.91;100125.78;4485079;32;33911;-66
2023/05/13 11:07:55;;;;;;;4.90;2.60;;;;;;;14.82;64.79;100115.25;4487689;31;35340;-66
2023/05/13 11:10:28;;;;;;;5.30;2.85;;;;;;;15.07;63.32;100122.06;4489679;31;33321;-66
2023/05/13 11:13:34;;;;;;;6.00;3.35;;;;;;;15.19;62.44;100126.38;4499933;31;33737;-66
2023/05/13 11:16:04;;;;;;;6.35;3.00;;;;;;;14.77;64.49;100112.97;4484497;31;34692;-66
2023/05/13 11:18:33;;;;;;;4.62;2.47;;;;;;;14.70;65.49;100113.62;4494042;31;33195;-66
2023/05/13 11:21:05;;;;;;;4.82;2.47;;;;;;;14.75;65.23;100111.37;4493059;31;33513;-66
2023/05/13 11:23:52;;;;;;;6.53;3.30;;;;;;;14.69;66.28;100112.75;4492145;31;34947;-66
2023/05/13 11:26:20;;;;;;;6.85;3.97;;;;;;;15.13;64.05;100114.28;4494221;31;33794;-66
2023/05/13 11:29:02;;;;;;;4.00;2.60;;;;;;;15.23;64.08;100105.41;4491680;31;33441;-66
2023/05/13 11:31:51;;;;;;;4.43;2.62;;;;;;;14.86;64.00;100119.38;4490343;31;33304;-66
2023/05/13 11:34:19;;;;;;;6.20;3.00;;;;;;;15.25;63.22;100122.28;4490600;31;33719;-66
2023/05/13 11:37:07;;;;;;;3.58;2.15;;;;;;;14.96;64.72;100124.81;4496152;31;32499;-64
2023/05/13 11:39:37;;;;;;;4.82;2.47;;;;;;;15.09;62.23;100120.94;4497714;31;35134;-65